Time;durP1;ratioP1;P1;durP2;ratioP2;P2;SDS_P1;SDS_P2;PMS_P1;PMS_P2;Temp;Humidity;BMP_temperature;BMP_pressure;BME280_temperature;BME280_humidity;BME280_pressure;Samples;Min_cycle;Max_cycle;Signal;HPM_P1;HPM_P2
2024/02/07 00:01:55;;;;;;;6.20;3.30;;;;;;;7.90;73.02;97687.46;226410;1275;22559;-81
2024/02/07 00:06:58;;;;;;;6.30;2.80;;;;;;;7.81;73.51;97680.89;226451;1277;22654;-81
2024/02/07 00:12:03;;;;;;;5.70;2.80;;;;;;;7.74;73.50;97667.59;226310;1277;22562;-81
2024/02/07 00:17:05;;;;;;;5.80;3.00;;;;;;;7.69;73.92;97663.46;226362;1275;22649;-81
2024/02/07 00:22:07;;;;;;;6.20;2.80;;;;;;;7.66;74.04;97654.42;226413;1273;23152;-78
2024/02/07 00:27:09;;;;;;;5.90;2.70;;;;;;;7.65;73.76;97654.10;226445;1269;22544;-78
2024/02/07 00:32:11;;;;;;;6.10;2.40;;;;;;;7.65;74.08;97646.50;226434;1277;23723;-77
2024/02/07 00:37:13;;;;;;;6.70;2.70;;;;;;;7.65;73.70;97641.20;226262;1277;22548;-80
2024/02/07 00:42:16;;;;;;;4.90;2.50;;;;;;;7.66;73.52;97650.59;226328;1276;22542;-78
2024/02/07 00:47:18;;;;;;;4.50;2.60;;;;;;;7.67;74.04;97655.58;226303;1277;22585;-78
2024/02/07 00:52:21;;;;;;;5.10;2.30;;;;;;;7.66;73.56;97648.56;226385;1275;22527;-77
2024/02/07 00:57:24;;;;;;;5.80;3.00;;;;;;;7.64;73.66;97642.20;226350;1276;22550;-78
2024/02/07 01:02:26;;;;;;;3.90;2.30;;;;;;;7.64;73.72;97634.36;226344;1276;25246;-77
2024/02/07 01:07:28;;;;;;;4.60;2.30;;;;;;;7.62;73.43;97631.16;226316;1266;22573;-78
2024/02/07 01:12:31;;;;;;;5.70;2.60;;;;;;;7.63;73.83;97631.56;226459;1275;24264;-77
2024/02/07 01:17:33;;;;;;;7.50;2.70;;;;;;;7.61;73.75;97629.48;226425;1278;22541;-78
2024/02/07 01:22:34;;;;;;;4.50;2.20;;;;;;;7.60;74.00;97627.90;226440;1277;22546;-77
2024/02/07 01:27:39;;;;;;;3.60;2.30;;;;;;;7.57;73.86;97620.02;226301;1275;22538;-78
2024/02/07 01:32:42;;;;;;;5.80;2.40;;;;;;;7.55;73.97;97613.48;226329;1277;25348;-79
2024/02/07 01:37:46;;;;;;;3.90;2.20;;;;;;;7.53;74.26;97599.15;226271;1275;22907;-77
2024/02/07 01:42:48;;;;;;;3.40;1.70;;;;;;;7.54;73.97;97587.75;226334;1272;22527;-79
2024/02/07 01:47:51;;;;;;;4.60;2.10;;;;;;;7.55;74.35;97586.30;226271;1273;22527;-79
2024/02/07 01:52:58;;;;;;;5.20;2.20;;;;;;;7.55;73.88;97580.77;226399;1275;22543;-78
2024/02/07 01:58:03;;;;;;;2.60;1.80;;;;;;;7.57;74.27;97576.31;226180;1277;22578;-78
2024/02/07 02:03:06;;;;;;;3.80;1.80;;;;;;;7.59;74.38;97573.15;226337;1277;22552;-77
2024/02/07 02:08:10;;;;;;;2.90;1.30;;;;;;;7.64;74.03;97566.34;226182;1277;22534;-78
2024/02/07 02:13:12;;;;;;;3.90;1.60;;;;;;;7.69;73.70;97559.24;226361;1262;22546;-78
2024/02/07 02:18:15;;;;;;;2.90;1.60;;;;;;;7.73;73.67;97554.17;226314;1275;22541;-77
2024/02/07 02:23:58;;;;;;;2.40;1.30;;;;;;;7.75;73.76;97550.69;226343;1275;25291;-78
2024/02/07 02:29:26;;;;;;;4.00;1.50;;;;;;;7.75;73.56;97545.69;226276;1277;25479;-78
2024/02/07 02:34:30;;;;;;;4.30;1.20;;;;;;;7.75;72.80;97534.73;226395;1275;22550;-77
2024/02/07 02:39:33;;;;;;;2.20;1.20;;;;;;;7.76;72.77;97526.79;226304;1278;25489;-80
2024/02/07 02:44:35;;;;;;;4.60;1.30;;;;;;;7.75;73.05;97526.67;226323;1277;22590;-77
2024/02/07 02:49:37;;;;;;;3.50;1.30;;;;;;;7.75;72.86;97522.11;226372;1277;22563;-78
2024/02/07 02:54:39;;;;;;;2.90;1.10;;;;;;;7.72;72.86;97511.51;226286;1265;22555;-78
2024/02/07 02:59:41;;;;;;;3.60;1.10;;;;;;;7.71;72.83;97504.16;226365;1275;25274;-78
2024/02/07 03:04:43;;;;;;;1.70;1.10;;;;;;;7.74;72.73;97492.17;226353;1276;22569;-78
2024/02/07 03:09:49;;;;;;;2.30;1.00;;;;;;;7.75;72.59;97492.17;226385;1277;22544;-78
2024/02/07 03:14:51;;;;;;;2.40;1.20;;;;;;;7.73;72.65;97486.10;226307;1277;22547;-76
2024/02/07 03:19:54;;;;;;;1.40;0.90;;;;;;;7.71;73.06;97493.45;226333;1277;22546;-77
2024/02/07 03:24:56;;;;;;;2.60;1.10;;;;;;;7.70;72.73;97484.66;226256;1276;22554;-77
2024/02/07 03:29:58;;;;;;;2.30;1.20;;;;;;;7.66;72.92;97485.70;226264;1276;22646;-78
2024/02/07 03:35:00;;;;;;;3.20;1.00;;;;;;;7.62;72.95;97482.13;226354;1273;22696;-79
2024/02/07 03:40:05;;;;;;;2.40;1.00;;;;;;;7.59;72.88;97462.07;226374;1275;22581;-78
2024/02/07 03:45:17;;;;;;;2.30;1.20;;;;;;;7.55;72.77;97456.66;226333;1275;25277;-78
2024/02/07 03:50:25;;;;;;;2.70;1.10;;;;;;;7.55;73.10;97441.11;226307;1276;22549;-78
2024/02/07 03:55:28;;;;;;;2.50;1.10;;;;;;;7.55;73.12;97430.23;226328;1278;24317;-78
2024/02/07 04:00:29;;;;;;;2.10;1.00;;;;;;;7.55;73.17;97434.44;226328;1277;22588;-78
2024/02/07 04:05:32;;;;;;;2.50;1.20;;;;;;;7.52;73.17;97424.61;226294;1277;22614;-78
2024/02/07 04:10:41;;;;;;;4.40;1.10;;;;;;;7.50;73.44;97426.30;226394;1276;22553;-78
2024/02/07 05:19:49;;;;;;;3.40;1.30;;;;;;;7.55;72.90;97359.59;226339;1277;22554;-78
2024/02/07 05:24:52;;;;;;;4.20;1.40;;;;;;;7.58;73.00;97357.02;226344;1274;23344;-77
2024/02/07 05:29:55;;;;;;;1.80;1.10;;;;;;;7.65;72.73;97380.36;226404;1274;24237;-77
2024/02/07 05:34:57;;;;;;;4.30;1.10;;;;;;;7.68;72.60;97366.77;226425;1277;22543;-78
2024/02/07 05:39:59;;;;;;;4.10;1.60;;;;;;;7.71;72.45;97357.06;226340;1274;22577;-78
2024/02/07 05:45:01;;;;;;;2.90;1.90;;;;;;;7.73;72.70;97357.65;226383;1277;22538;-78
2024/02/07 05:50:08;;;;;;;4.20;1.50;;;;;;;7.74;72.28;97349.60;226381;1273;24790;-79
2024/02/07 05:55:10;;;;;;;4.00;1.70;;;;;;;7.75;72.27;97339.21;226422;1273;22557;-79
2024/02/07 06:00:14;;;;;;;3.70;1.70;;;;;;;7.76;72.71;97349.89;226358;1276;23072;-78
2024/02/07 06:05:17;;;;;;;3.20;1.70;;;;;;;7.76;72.74;97341.35;226301;1274;22552;-78
2024/02/07 06:10:20;;;;;;;5.10;1.40;;;;;;;7.75;72.65;97343.98;226303;1277;22572;-78
2024/02/07 06:15:22;;;;;;;2.80;1.40;;;;;;;7.75;72.49;97342.04;226412;1274;25363;-77
2024/02/07 06:20:24;;;;;;;3.20;1.30;;;;;;;7.75;72.03;97338.96;226274;1277;22555;-78
2024/02/07 06:25:27;;;;;;;3.20;1.50;;;;;;;7.75;71.68;97336.61;226288;1277;22550;-77
2024/02/07 06:30:30;;;;;;;4.30;1.50;;;;;;;7.75;72.03;97331.45;226350;1272;24237;-78
2024/02/07 06:35:32;;;;;;;4.40;1.50;;;;;;;7.77;71.87;97333.99;226372;1277;22543;-79
2024/02/07 06:40:35;;;;;;;7.00;1.80;;;;;;;7.78;72.15;97324.23;226360;1274;22557;-78
2024/02/07 06:45:37;;;;;;;3.70;1.80;;;;;;;7.78;71.70;97321.45;226362;1277;22538;-77
2024/02/07 06:50:38;;;;;;;5.90;2.70;;;;;;;7.79;72.14;97316.20;226209;1277;22573;-77
2024/02/07 06:55:40;;;;;;;2.50;1.40;;;;;;;7.82;71.95;97326.35;226230;1260;22558;-79
2024/02/07 07:00:43;;;;;;;4.30;1.60;;;;;;;7.84;71.89;97330.27;225924;1260;22555;-77
2024/02/07 07:05:45;;;;;;;4.00;2.20;;;;;;;7.84;72.09;97329.05;226249;1270;22577;-81
2024/02/07 07:10:47;;;;;;;2.90;1.40;;;;;;;7.83;72.31;97334.31;226149;1256;22550;-78
2024/02/07 07:15:50;;;;;;;5.30;3.10;;;;;;;7.82;72.39;97330.91;226032;1254;24369;-77
2024/02/07 07:20:52;;;;;;;4.60;2.40;;;;;;;7.79;72.80;97335.48;225983;1270;22558;-77
2024/02/07 07:25:53;;;;;;;3.20;1.50;;;;;;;7.71;72.76;97341.98;225970;1270;22547;-78
2024/02/07 07:30:57;;;;;;;3.50;1.90;;;;;;;7.61;73.26;97337.77;226268;1270;23055;-78
2024/02/07 07:35:59;;;;;;;4.10;1.80;;;;;;;7.51;74.00;97340.55;226037;1269;22560;-79
2024/02/07 07:41:02;;;;;;;5.60;1.90;;;;;;;7.40;74.16;97345.41;225981;1266;22564;-79
2024/02/07 07:46:05;;;;;;;3.60;1.70;;;;;;;7.35;74.93;97345.77;226179;1254;22529;-81
2024/02/07 07:51:07;;;;;;;4.30;2.20;;;;;;;7.30;75.19;97342.09;226194;1263;22793;-76
2024/02/07 07:56:09;;;;;;;3.40;2.40;;;;;;;7.25;75.80;97334.06;226156;1254;24820;-76
2024/02/07 08:01:14;;;;;;;4.40;2.10;;;;;;;7.20;76.13;97335.19;226235;1263;22562;-76
2024/02/07 08:06:16;;;;;;;5.60;1.90;;;;;;;7.15;76.19;97331.58;226284;1263;23188;-76
2024/02/07 08:11:18;;;;;;;6.70;2.10;;;;;;;7.11;76.38;97331.08;226221;1259;22561;-76
2024/02/07 08:16:20;;;;;;;3.40;1.90;;;;;;;7.10;76.87;97331.52;226123;1272;22579;-77
2024/02/07 08:21:22;;;;;;;3.40;2.10;;;;;;;7.09;76.98;97335.39;226120;1260;22540;-77
2024/02/07 08:26:24;;;;;;;3.10;2.20;;;;;;;7.11;76.60;97327.69;226302;1260;22627;-78
2024/02/07 08:31:27;;;;;;;5.50;1.70;;;;;;;7.13;76.78;97329.77;226134;1270;22547;-77
2024/02/07 08:36:29;;;;;;;2.90;1.90;;;;;;;7.22;76.41;97322.90;226278;1273;22718;-76
2024/02/07 08:41:31;;;;;;;3.10;1.40;;;;;;;7.28;75.94;97320.48;226325;1270;22536;-77
2024/02/07 08:46:33;;;;;;;3.00;1.90;;;;;;;7.31;75.59;97310.73;226145;1256;236776;-77
2024/02/07 08:51:35;;;;;;;1.80;1.20;;;;;;;7.34;75.48;97306.73;226303;1266;22547;-78
2024/02/07 08:56:37;;;;;;;3.60;1.70;;;;;;;7.35;75.74;97311.09;226260;1254;24267;-77
2024/02/07 09:01:40;;;;;;;4.80;1.70;;;;;;;7.35;75.93;97311.10;226370;1273;22546;-77
2024/02/07 09:06:43;;;;;;;3.90;1.60;;;;;;;7.33;75.97;97309.91;226244;1273;22533;-78
2024/02/07 09:11:45;;;;;;;3.90;1.50;;;;;;;7.29;76.08;97305.61;226214;1269;22563;-78
2024/02/07 09:16:47;;;;;;;4.90;2.30;;;;;;;7.21;76.97;97301.84;226208;1263;22547;-79
2024/02/07 09:21:49;;;;;;;3.90;2.10;;;;;;;7.10;77.56;97303.02;226250;1255;22487;-79
2024/02/07 09:26:53;;;;;;;3.80;1.70;;;;;;;7.04;77.19;97301.85;226297;1263;22551;-77
2024/02/07 09:31:55;;;;;;;3.00;1.80;;;;;;;7.01;77.37;97302.45;226296;1263;22608;-76
2024/02/07 09:36:57;;;;;;;6.80;2.70;;;;;;;7.01;77.41;97299.23;226247;1259;22561;-76
2024/02/07 09:42:03;;;;;;;3.60;1.80;;;;;;;7.03;77.48;97297.97;226311;1254;22590;-76
2024/02/07 09:47:10;;;;;;;3.40;1.90;;;;;;;7.07;77.50;97294.54;226350;1275;22649;-77
2024/02/07 09:52:14;;;;;;;3.20;1.80;;;;;;;7.14;76.93;97304.32;226314;1270;24883;-79
2024/02/07 09:57:17;;;;;;;5.70;2.40;;;;;;;7.21;77.03;97303.55;226110;1270;22558;-77
2024/02/07 10:02:21;;;;;;;7.40;1.70;;;;;;;7.29;76.95;97303.50;226319;1256;22539;-76
2024/02/07 10:07:23;;;;;;;6.80;1.70;;;;;;;7.37;76.81;97299.34;226029;1259;22536;-75
2024/02/07 10:12:26;;;;;;;4.70;2.20;;;;;;;7.42;76.89;97289.41;226031;1254;22562;-75
2024/02/07 10:17:28;;;;;;;4.10;2.00;;;;;;;7.47;76.97;97290.05;226335;1270;24287;-76
2024/02/07 10:22:30;;;;;;;5.30;1.90;;;;;;;7.52;76.80;97278.52;226358;1270;22548;-84
2024/02/07 10:27:32;;;;;;;5.40;2.60;;;;;;;7.57;76.49;97276.70;226233;1254;25542;-80
2024/02/07 10:32:38;;;;;;;3.80;1.50;;;;;;;7.65;76.80;97266.77;226048;1256;22586;-76
2024/02/07 10:37:41;;;;;;;3.70;1.90;;;;;;;7.69;76.81;97265.32;226171;1257;22565;-76
2024/02/07 10:42:53;;;;;;;2.80;1.70;;;;;;;7.75;76.65;97261.60;226340;1263;22465;-77
2024/02/07 10:47:55;;;;;;;4.90;2.20;;;;;;;7.82;76.66;97256.33;226370;1270;22573;-76
2024/02/07 10:53:00;;;;;;;3.30;1.90;;;;;;;7.92;76.47;97257.29;226218;1266;22548;-75
2024/02/07 10:58:05;;;;;;;5.50;2.10;;;;;;;7.97;76.79;97252.42;226351;1270;22551;-75
2024/02/07 11:03:08;;;;;;;3.50;2.20;;;;;;;7.96;76.97;97254.09;226118;1263;22561;-76
2024/02/07 11:08:10;;;;;;;3.10;1.80;;;;;;;7.96;77.03;97251.05;226028;1263;22540;-76
2024/02/07 11:13:13;;;;;;;4.10;2.20;;;;;;;7.97;76.51;97247.29;225991;1266;22554;-76
2024/02/07 11:18:15;;;;;;;4.40;2.20;;;;;;;7.99;76.47;97245.75;226220;1258;22558;-77
2024/02/07 11:23:25;;;;;;;6.30;2.70;;;;;;;8.01;76.21;97242.77;226320;1259;22544;-76
2024/02/07 11:28:28;;;;;;;3.70;2.60;;;;;;;8.06;76.30;97240.73;226305;1270;22537;-77
2024/02/07 11:33:36;;;;;;;3.40;2.20;;;;;;;8.13;76.45;97234.98;226128;1274;22547;-76
2024/02/07 11:38:38;;;;;;;4.60;2.30;;;;;;;8.22;76.40;97225.86;225871;1271;22578;-77
2024/02/07 11:43:42;;;;;;;3.40;1.70;;;;;;;8.31;76.29;97223.89;225831;1263;22626;-75
2024/02/07 11:48:51;;;;;;;2.70;1.90;;;;;;;8.41;75.87;97228.34;225992;1275;22553;-76
2024/02/07 11:54:00;;;;;;;3.10;1.80;;;;;;;8.51;76.14;97234.21;226278;1269;22543;-76
2024/02/07 11:59:02;;;;;;;3.60;2.20;;;;;;;8.55;75.72;97227.55;226270;1270;25300;-76
2024/02/07 12:04:05;;;;;;;4.70;2.20;;;;;;;8.59;75.69;97227.89;226121;1272;25255;-77
2024/02/07 12:09:08;;;;;;;4.00;2.10;;;;;;;8.65;76.01;97224.64;226244;1272;22539;-77
2024/02/07 12:14:12;;;;;;;3.40;2.50;;;;;;;8.75;76.13;97217.56;226223;1270;25294;-76
2024/02/07 12:19:14;;;;;;;5.50;2.80;;;;;;;8.86;75.81;97213.96;226310;1259;22644;-75
2024/02/07 12:24:23;;;;;;;5.10;2.10;;;;;;;8.94;75.88;97205.78;226364;1271;23381;-75
2024/02/07 12:29:25;;;;;;;3.20;1.90;;;;;;;9.02;75.69;97214.23;226287;1269;22557;-76
2024/02/07 12:34:27;;;;;;;2.80;1.90;;;;;;;9.06;75.67;97214.63;226318;1254;22550;-75
2024/02/07 12:39:30;;;;;;;5.30;2.30;;;;;;;9.10;75.88;97212.55;226079;1256;22480;-76
2024/02/07 12:44:33;;;;;;;3.20;1.90;;;;;;;9.19;76.26;97211.25;226181;1257;22553;-76
2024/02/07 12:49:35;;;;;;;3.90;2.10;;;;;;;9.30;76.09;97210.67;226290;1270;22550;-77
2024/02/07 12:54:38;;;;;;;4.70;2.40;;;;;;;9.34;76.21;97225.04;226284;1256;22550;-77
2024/02/07 12:59:41;;;;;;;4.70;2.50;;;;;;;9.24;75.94;97230.06;226161;1258;22616;-76
2024/02/07 13:04:44;;;;;;;3.50;2.20;;;;;;;9.12;76.56;97242.38;226319;1270;23392;-77
2024/02/07 13:09:46;;;;;;;4.40;3.40;;;;;;;8.96;77.32;97261.12;226312;1256;22558;-77
2024/02/07 13:14:48;;;;;;;4.70;3.00;;;;;;;8.62;78.45;97283.64;226201;1260;24249;-76
2024/02/07 13:19:50;;;;;;;2.70;2.10;;;;;;;8.10;78.41;97309.86;226294;1277;22548;-78
2024/02/07 13:24:52;;;;;;;2.20;1.90;;;;;;;7.38;77.92;97323.30;226273;1262;25209;-77
2024/02/07 13:29:54;;;;;;;1.70;1.60;;;;;;;6.68;78.76;97325.23;226261;1272;22529;-78
2024/02/07 13:34:57;;;;;;;2.00;1.80;;;;;;;6.22;79.25;97340.23;226194;1275;22661;-78
2024/02/07 13:39:59;;;;;;;1.90;1.60;;;;;;;5.82;79.71;97344.65;226080;1272;22596;-82
2024/02/07 13:45:01;;;;;;;2.20;2.00;;;;;;;5.44;80.45;97352.02;226154;1273;22547;-80
2024/02/07 13:50:03;;;;;;;2.90;2.20;;;;;;;5.18;81.44;97350.90;225992;1276;24304;-80
2024/02/07 13:55:06;;;;;;;1.90;1.60;;;;;;;4.98;81.97;97364.81;226085;1270;22571;-79
2024/02/07 14:00:09;;;;;;;1.50;1.40;;;;;;;4.75;81.98;97377.48;226185;1272;22561;-81
2024/02/07 14:05:12;;;;;;;1.50;1.30;;;;;;;4.57;82.54;97380.10;226035;1263;22540;-78
2024/02/07 14:10:19;;;;;;;1.70;1.00;;;;;;;4.38;82.44;97388.09;226172;1259;22546;-81
2024/02/07 14:15:21;;;;;;;1.10;0.80;;;;;;;4.20;83.01;97403.70;226165;1273;24261;-79
2024/02/07 14:20:23;;;;;;;1.80;1.40;;;;;;;4.06;83.28;97407.82;226164;1274;22539;-80
2024/02/07 14:25:25;;;;;;;2.90;1.40;;;;;;;3.95;83.46;97404.94;226271;1272;22567;-79
2024/02/07 14:30:27;;;;;;;2.40;1.50;;;;;;;3.86;83.55;97409.36;226251;1259;22551;-79
2024/02/07 14:35:31;;;;;;;2.70;1.60;;;;;;;3.80;83.74;97420.61;226346;1256;22764;-80
2024/02/07 14:40:33;;;;;;;2.00;1.70;;;;;;;3.76;83.82;97417.11;226084;1271;22547;-83
2024/02/07 14:45:35;;;;;;;3.10;2.10;;;;;;;3.73;84.03;97427.72;225958;1259;22543;-80
2024/02/07 14:50:39;;;;;;;4.70;2.30;;;;;;;3.71;84.16;97428.46;226315;1272;22572;-79
2024/02/07 14:55:42;;;;;;;3.10;2.20;;;;;;;3.69;84.25;97435.15;226237;1259;22574;-77
2024/02/07 15:00:44;;;;;;;2.50;2.10;;;;;;;3.64;84.43;97430.81;225962;1273;25365;-77
2024/02/07 15:05:48;;;;;;;3.40;2.00;;;;;;;3.61;84.42;97439.20;225472;1277;22581;-78
2024/02/07 15:10:50;;;;;;;4.90;2.80;;;;;;;3.59;84.57;97442.54;225726;1272;22584;-77
2024/02/07 15:15:53;;;;;;;2.70;1.90;;;;;;;3.58;84.59;97451.95;226137;1275;22573;-78
2024/02/07 15:20:58;;;;;;;2.30;1.70;;;;;;;3.53;84.73;97456.15;226038;1277;22571;-78
2024/02/07 15:26:02;;;;;;;4.50;1.90;;;;;;;3.45;84.64;97449.25;225852;1277;22741;-78
2024/02/07 15:31:05;;;;;;;5.90;3.10;;;;;;;3.39;84.85;97456.23;226069;1274;23273;-79
2024/02/07 15:36:08;;;;;;;2.80;2.10;;;;;;;3.32;84.71;97460.29;226134;1272;22543;-77
2024/02/07 15:41:13;;;;;;;3.90;1.90;;;;;;;3.21;85.12;97454.84;226286;1275;22544;-79
2024/02/07 15:46:16;;;;;;;2.50;1.30;;;;;;;3.09;84.93;97452.02;226236;1276;22551;-80
2024/02/07 15:51:19;;;;;;;3.70;1.40;;;;;;;2.95;84.90;97462.11;226397;1274;22547;-78
2024/02/07 15:56:21;;;;;;;2.20;1.20;;;;;;;2.84;85.14;97472.94;226388;1277;22553;-77
2024/02/07 16:01:23;;;;;;;2.60;1.30;;;;;;;2.71;85.10;97478.52;226411;1273;22557;-78
2024/02/07 16:06:42;;;;;;;2.40;1.60;;;;;;;2.59;85.32;97483.67;226377;1277;22535;-79
2024/02/07 16:11:45;;;;;;;4.50;2.20;;;;;;;2.52;85.57;97492.13;226365;1275;22719;-79
2024/02/07 16:16:47;;;;;;;3.00;2.10;;;;;;;2.48;85.69;97504.39;226414;1273;25298;-78
2024/02/07 16:21:49;;;;;;;2.90;2.40;;;;;;;2.43;85.64;97506.78;226363;1277;22546;-79
2024/02/07 16:26:53;;;;;;;6.70;2.70;;;;;;;2.40;85.78;97517.57;226234;1277;22558;-77
2024/02/07 16:31:55;;;;;;;3.00;2.20;;;;;;;2.37;85.91;97537.75;226414;1277;22591;-79
2024/02/07 16:36:59;;;;;;;4.10;2.20;;;;;;;2.28;85.85;97544.09;226227;1276;24307;-79
2024/02/07 16:42:03;;;;;;;3.40;2.10;;;;;;;2.18;85.78;97549.90;226328;1277;22546;-78
2024/02/07 16:47:06;;;;;;;5.20;2.60;;;;;;;2.08;85.89;97549.04;226449;1277;22566;-78
2024/02/07 16:52:12;;;;;;;6.40;3.80;;;;;;;2.01;86.05;97542.15;226432;1273;22547;-79
2024/02/07 16:57:15;;;;;;;5.20;3.70;;;;;;;1.97;86.12;97547.59;226293;1277;22558;-79
2024/02/07 17:02:17;;;;;;;5.70;3.90;;;;;;;1.94;86.20;97540.09;226291;1275;22535;-79
2024/02/07 17:07:19;;;;;;;6.50;4.20;;;;;;;1.95;86.30;97546.77;226234;1275;22562;-79
2024/02/07 17:12:22;;;;;;;5.70;3.60;;;;;;;1.98;86.36;97539.15;226254;1277;22982;-78
2024/02/07 17:17:25;;;;;;;4.10;2.70;;;;;;;2.00;86.48;97540.71;226420;1263;22597;-77
2024/02/07 17:22:27;;;;;;;4.30;2.80;;;;;;;2.03;86.40;97541.77;226444;1275;22540;-78
2024/02/07 17:27:29;;;;;;;3.60;2.90;;;;;;;2.03;86.39;97547.82;226456;1275;22554;-79
2024/02/07 17:32:32;;;;;;;4.40;2.70;;;;;;;2.03;86.39;97548.23;226265;1277;22545;-79
2024/02/07 17:37:34;;;;;;;3.60;2.80;;;;;;;2.04;86.47;97558.04;226369;1273;22550;-78
2024/02/07 17:42:37;;;;;;;6.10;3.30;;;;;;;2.04;86.46;97553.52;226464;1277;22627;-78
2024/02/07 17:47:40;;;;;;;6.40;3.90;;;;;;;2.05;86.67;97554.23;226359;1277;22551;-78
2024/02/07 17:52:43;;;;;;;8.40;5.90;;;;;;;2.10;86.75;97561.85;226294;1276;22528;-79
2024/02/07 17:57:50;;;;;;;8.20;5.50;;;;;;;2.12;86.70;97566.65;226286;1277;22554;-79
2024/02/07 18:02:52;;;;;;;8.60;6.00;;;;;;;2.17;86.96;97554.17;226273;1277;22558;-79
2024/02/07 18:07:56;;;;;;;8.40;6.10;;;;;;;2.18;86.81;97553.27;226070;1277;25068;-78
2024/02/07 18:13:01;;;;;;;9.10;6.70;;;;;;;2.16;86.82;97559.52;226365;1275;25348;-78
2024/02/07 18:18:04;;;;;;;8.50;6.60;;;;;;;2.17;87.02;97565.45;226280;1277;22561;-78
2024/02/07 18:23:09;;;;;;;11.00;6.90;;;;;;;2.20;87.18;97557.27;226292;1277;22554;-78
2024/02/07 18:28:14;;;;;;;11.60;6.80;;;;;;;2.27;87.22;97564.05;226363;1277;22598;-78
2024/02/07 18:33:23;;;;;;;10.70;6.90;;;;;;;2.32;87.09;97559.29;226225;1276;24324;-78
2024/02/07 18:38:27;;;;;;;9.60;6.50;;;;;;;2.40;87.39;97554.77;226200;1277;25294;-77
2024/02/07 18:43:31;;;;;;;9.00;5.90;;;;;;;2.48;87.41;97554.54;226357;1275;22596;-79
2024/02/07 18:48:34;;;;;;;8.40;6.60;;;;;;;2.56;87.40;97556.00;226279;1277;22687;-79
2024/02/07 18:53:37;;;;;;;8.40;6.70;;;;;;;2.60;87.21;97546.64;226241;1277;22550;-78
2024/02/07 18:58:40;;;;;;;13.60;8.10;;;;;;;2.60;86.96;97558.86;226376;1277;22577;-80
2024/02/07 19:03:42;;;;;;;14.20;7.60;;;;;;;2.59;86.82;97564.37;226316;1277;22552;-79
2024/02/07 19:08:47;;;;;;;11.90;8.00;;;;;;;2.59;86.98;97569.23;226237;1277;22543;-80
2024/02/07 19:13:51;;;;;;;11.90;7.20;;;;;;;2.60;87.09;97575.48;226296;1277;23799;-78
2024/02/07 19:18:53;;;;;;;14.30;7.50;;;;;;;2.66;87.31;97577.01;226476;1275;22557;-78
2024/02/07 19:23:56;;;;;;;13.30;8.10;;;;;;;2.70;87.21;97584.02;226245;1277;22665;-78
2024/02/07 19:28:58;;;;;;;12.40;6.60;;;;;;;2.73;87.13;97585.34;226353;1275;22585;-78
2024/02/07 19:34:05;;;;;;;8.90;6.30;;;;;;;2.74;86.98;97586.16;226365;1277;22658;-78
2024/02/07 19:39:09;;;;;;;7.80;4.80;;;;;;;2.73;87.04;97588.50;226138;1277;22585;-78
2024/02/07 19:44:13;;;;;;;8.10;4.70;;;;;;;2.73;86.88;97587.95;226322;1277;22547;-79
2024/02/07 19:49:17;;;;;;;8.10;5.50;;;;;;;2.73;87.02;97594.40;226403;1275;22543;-77
2024/02/07 19:54:19;;;;;;;9.20;6.30;;;;;;;2.75;87.01;97605.00;226415;1269;22554;-78
2024/02/07 19:59:28;;;;;;;9.70;6.40;;;;;;;2.75;86.90;97602.36;226304;1262;22542;-79
2024/02/07 20:04:30;;;;;;;8.80;5.50;;;;;;;2.75;86.78;97603.04;226221;1277;22550;-79
2024/02/07 20:09:33;;;;;;;8.40;5.80;;;;;;;2.74;86.78;97604.26;226341;1277;22543;-78
2024/02/07 20:14:39;;;;;;;8.00;6.00;;;;;;;2.74;86.83;97609.23;226334;1277;25587;-79
2024/02/07 20:19:45;;;;;;;8.60;5.90;;;;;;;2.78;86.87;97614.74;226355;1273;22627;-78
2024/02/07 20:24:50;;;;;;;9.20;5.80;;;;;;;2.77;86.61;97624.55;226359;1277;22568;-78
2024/02/07 20:30:00;;;;;;;8.20;5.40;;;;;;;2.75;86.44;97630.17;226179;1277;22563;-79
2024/02/07 20:35:03;;;;;;;;;;;;;;;2.73;86.43;97639.23;226376;1276;22528;-79
2024/02/07 20:40:06;;;;;;;7.60;4.90;;;;;;;2.68;86.29;97642.27;226510;1255;22698;-79
2024/02/07 20:45:11;;;;;;;8.00;5.10;;;;;;;2.63;86.09;97646.30;226260;1275;174348;-79
2024/02/07 20:50:15;;;;;;;8.80;4.40;;;;;;;2.60;86.19;97650.27;226352;1277;22563;-79
2024/02/07 20:55:19;;;;;;;7.40;4.50;;;;;;;2.58;86.15;97652.45;226404;1277;22549;-79
2024/02/07 21:00:22;;;;;;;6.50;4.00;;;;;;;2.53;85.93;97653.52;226420;1275;22653;-79
2024/02/07 21:05:24;;;;;;;8.20;4.90;;;;;;;2.46;85.85;97656.27;226465;1273;22620;-79
2024/02/07 21:10:27;;;;;;;9.40;5.40;;;;;;;2.42;85.95;97661.77;226358;1277;22659;-79
2024/02/07 21:15:29;;;;;;;10.80;6.20;;;;;;;2.38;85.89;97666.01;226361;1277;22561;-78
2024/02/07 21:20:32;;;;;;;7.90;5.00;;;;;;;2.33;85.82;97672.86;226285;1277;22553;-79
2024/02/07 21:25:35;;;;;;;10.60;4.80;;;;;;;2.26;85.82;97675.83;226286;1277;22546;-78
2024/02/07 21:30:38;;;;;;;8.80;4.70;;;;;;;2.21;85.76;97674.52;226286;1277;25242;-79
2024/02/07 21:35:40;;;;;;;8.80;5.10;;;;;;;2.20;86.05;97676.64;226375;1274;22640;-79
2024/02/07 21:40:42;;;;;;;8.00;5.30;;;;;;;2.21;86.08;97682.83;226204;1277;24431;-79
2024/02/07 21:45:44;;;;;;;8.60;5.30;;;;;;;2.19;85.91;97677.99;226400;1276;22649;-79
2024/02/07 21:50:47;;;;;;;7.80;4.60;;;;;;;2.17;85.93;97683.77;226344;1277;22699;-78
2024/02/07 21:55:49;;;;;;;8.50;5.40;;;;;;;2.17;86.03;97682.85;226384;1277;22718;-79
2024/02/07 22:00:51;;;;;;;7.80;4.90;;;;;;;2.17;86.04;97678.67;226412;1275;22557;-79
2024/02/07 22:05:53;;;;;;;7.60;4.10;;;;;;;2.15;85.94;97675.73;226219;1277;22536;-79
2024/02/07 22:10:58;;;;;;;7.00;3.60;;;;;;;2.07;85.77;97686.80;226409;1277;22543;-79
2024/02/07 22:16:01;;;;;;;5.90;3.50;;;;;;;2.05;85.90;97693.73;226197;1277;24109;-79
2024/02/07 22:21:03;;;;;;;9.20;4.50;;;;;;;2.03;85.92;97689.86;226388;1277;22550;-77
2024/02/07 22:26:05;;;;;;;6.80;4.20;;;;;;;1.99;85.87;97689.83;226345;1277;25394;-79
2024/02/07 22:31:07;;;;;;;8.60;4.40;;;;;;;1.94;85.95;97697.82;226419;1277;22543;-79
2024/02/07 22:36:09;;;;;;;7.90;4.40;;;;;;;1.91;85.99;97699.65;226323;1275;22543;-78
2024/02/07 22:41:11;;;;;;;7.40;4.00;;;;;;;1.87;86.03;97701.50;226372;1275;22776;-79
2024/02/07 22:46:15;;;;;;;9.10;4.40;;;;;;;1.82;86.12;97701.80;226330;1277;22640;-78
2024/02/07 22:51:17;;;;;;;6.50;4.00;;;;;;;1.79;86.25;97698.35;226166;1277;22629;-78
2024/02/07 22:56:21;;;;;;;8.00;4.60;;;;;;;1.79;86.44;97704.64;226347;1277;22562;-79
2024/02/07 23:01:24;;;;;;;8.10;4.50;;;;;;;1.78;86.31;97709.52;226250;1277;22546;-78
2024/02/07 23:06:26;;;;;;;7.00;4.30;;;;;;;1.75;86.31;97709.09;226387;1276;22544;-79
2024/02/07 23:11:28;;;;;;;8.80;4.90;;;;;;;1.74;86.17;97715.50;226330;1275;22658;-79
2024/02/07 23:16:31;;;;;;;7.10;4.20;;;;;;;1.71;86.24;97717.07;226408;1277;22543;-79
2024/02/07 23:21:33;;;;;;;6.70;4.10;;;;;;;1.70;86.24;97716.27;226318;1277;22563;-79
2024/02/07 23:26:35;;;;;;;7.40;4.00;;;;;;;1.68;86.09;97717.16;226303;1276;22552;-79
2024/02/07 23:31:37;;;;;;;6.90;3.90;;;;;;;1.65;86.17;97717.50;226369;1277;22547;-77
2024/02/07 23:36:39;;;;;;;9.70;4.80;;;;;;;1.63;86.27;97724.75;226388;1277;22593;-78
2024/02/07 23:41:41;;;;;;;6.90;3.80;;;;;;;1.61;86.24;97725.15;226410;1278;22564;-79
2024/02/07 23:46:43;;;;;;;13.30;5.00;;;;;;;1.55;86.14;97726.66;226380;1276;22554;-78
2024/02/07 23:51:46;;;;;;;7.70;4.20;;;;;;;1.51;86.26;97722.80;226300;1277;22541;-78
2024/02/07 23:56:48;;;;;;;8.90;4.60;;;;;;;1.47;86.23;97730.83;226374;1278;22547;-78
